Home > Products > Valid Products > SSM

000
SMZS01 NSTU 282356
SSMPPG
AAXX 01004
91765 11469 80812 10303 20256 30076 40080 57007 60034 70282 84378
333 20262 56299 58011 70025 555 90100=




000
SMZS01 NSTU 281755
SSMPPG
AAXX 28184
91765 11567 70000 10262 20244 30075 40078 52010 60021 78082 84878
333 56999 70025 555 92818=




000
SMZS01 NSTU 281755
SSMPPG
AAXX 28184
91765 11567 70000 10262 20244 30075 40078 52010 60021 78082 84878
333 56999 70025 555 92818=




000
SMZS01 NSTU 281154
SSMPPG
AAXX 28124
91765 11566 59903 10269 20251 30076 40080 57010 60011 70282 83448
333 10323 56999 59001 70010 555 92812=




000
SMZS01 NSTU 281154
SSMPPG
AAXX 28124
91765 11566 59903 10269 20251 30076 40080 57010 60011 70282 83448
333 10323 56999 59001 70010 555 92812=




000
SMZS01 NSTU 280555
SSMPPG
AAXX 28064
91765 32467 50809 10294 20256 30064 40068 51010 84270 333 5622/
70003 555 92806=




000
SMZS01 NSTU 280555
SSMPPG
AAXX 28064
91765 32467 50809 10294 20256 30064 40068 51010 84270 333 5622/
70003 555 92806=




000
SMZS01 NSTU 280002
SSMPPG
AAXX 28004
91765 12569 41009 10322 20268 30066 40069 56015 60024 83201 333
20277 562/9 59009 70015 555 92800=




000
SMZS01 NSTU 271759
SSMPPG
AAXX 27184
91765 32469 61012 10286 20249 30076 40080 52014 84433 333 56299
70015 555 92718=




000
SMZS01 NSTU 271759
SSMPPG
AAXX 27184
91765 32469 61012 10286 20249 30076 40080 52014 84433 333 56299
70015 555 92718=




000
SMZS01 NSTU 271202
SSMPPG
AAXX 27124
91765 11566 71009 10285 20245 30078 40081 57007 69931 70262 84418
333 10312 56299 58000 70015 555 92712=




000
SMZS01 NSTU 270606
SSMPPG
AAXX 27064
91765 11466 71306 10282 20253 30076 40080 52014 60011 72582 85201
333 564/9 70013 555 92706=




000
SMZS01 NSTU 262355
SSMPPG
AAXX 27004
91765 32569 51407 10312 20256 30075 40078 56015 83171 333 20258
56399 59002 555 92700=




000
SMZS01 NSTU 262355
SSMPPG
AAXX 27004
91765 32569 51407 10312 20256 30075 40078 56015 83171 333 20258
56399 59002 555 92700=




000
SMZS01 NSTU 261753
SSMPPG
AAXX 26184
91765 32569 79902 10264 20244 30078 40081 52012 81138 333 56999 555
92618=




000
SMZS01 NSTU 261753
SSMPPG
AAXX 26184
91765 32569 79902 10264 20244 30078 40081 52012 81138 333 56999 555
92618=




000
SMZS01 NSTU 261156
SSMPPG
AAXX 26124
91765 32566 89903 10260 20235 30078 40081 57008 85418 333 10311
56999 59004 70005 555 92612=




000
SMZS01 NSTU 261156
SSMPPG
AAXX 26124
91765 32566 89903 10260 20235 30078 40081 57008 85418 333 10311
56999 59004 70005 555 92612=




000
SMZS01 NSTU 260603
SSMPPG
AAXX 26064
91765 32569 81204 10285 20237 30073 40076 53008 83108 333 569/9
70005 555 92606=






000
SMZS01 NSTU 260603
SSMPPG
AAXX 26064
91765 32569 81204 10285 20237 30073 40076 53008 83108 333 569/9
70005 555 92606=






    US Dept of Commerce
    National Oceanic and Atmospheric Administration
    National Weather Service
    1325 East West Highway
    Silver Spring, MD 20910
    Page Author: NWS Internet Services Team
Disclaimer
Information Quality
Credits
Glossary
Privacy Policy
Freedom of Information Act (FOIA)
About Us
Career Opportunities